createdAt,value
2019-02-18T00:01:00.689Z,27.87
2019-02-18T00:03:27.844Z,27.87
2019-02-18T00:05:55.186Z,27.97
2019-02-18T00:08:22.286Z,28.07
2019-02-18T00:10:49.427Z,28.13
2019-02-18T00:13:16.509Z,29.83
2019-02-18T00:15:43.647Z,29.60
2019-02-18T00:18:10.714Z,29.03
2019-02-18T00:20:37.927Z,30.20
2019-02-18T00:23:05.027Z,28.47
2019-02-18T00:25:32.109Z,27.93
2019-02-18T00:27:59.575Z,28.93
2019-02-18T00:30:26.753Z,30.10
2019-02-18T00:32:53.833Z,28.47
2019-02-18T00:35:21.934Z,29.40
2019-02-18T00:37:49.076Z,29.50
2019-02-18T00:40:16.215Z,30.63
2019-02-18T00:42:43.316Z,30.30
2019-02-18T00:45:12.635Z,30.03
2019-02-18T00:47:39.776Z,31.30
2019-02-18T00:50:09.214Z,30.60
2019-02-18T00:52:36.273Z,29.23
2019-02-18T00:55:05.917Z,27.03
2019-02-18T00:57:32.995Z,28.00
2019-02-18T01:00:00.302Z,27.03
2019-02-18T01:02:27.573Z,26.13
2019-02-18T01:04:55.115Z,25.97
2019-02-18T01:07:22.256Z,25.80
2019-02-18T01:09:49.406Z,27.80
2019-02-18T01:12:16.553Z,25.90
2019-02-18T01:14:43.655Z,25.47
2019-02-18T01:17:10.774Z,27.40
2019-02-18T01:19:37.873Z,27.37
2019-02-18T01:22:05.073Z,26.67
2019-02-18T01:24:32.156Z,28.10
2019-02-18T01:26:59.234Z,27.73
2019-02-18T01:29:26.380Z,27.03
2019-02-18T01:31:53.454Z,25.70
2019-02-18T01:34:20.620Z,26.53
2019-02-18T01:36:47.793Z,26.50
2019-02-18T01:39:14.934Z,29.33
2019-02-18T01:41:42.013Z,27.63
2019-02-18T01:44:09.173Z,26.90
2019-02-18T01:46:36.255Z,29.00
2019-02-18T01:49:03.436Z,29.77
2019-02-18T01:51:30.574Z,31.97
2019-02-18T01:53:57.794Z,29.60
2019-02-18T01:56:24.824Z,30.30
2019-02-18T01:58:51.934Z,30.03
2019-02-18T02:01:19.078Z,31.20
2019-02-18T02:03:46.196Z,32.87
2019-02-18T02:06:13.320Z,29.07
2019-02-18T02:08:40.478Z,28.20
2019-02-18T02:11:07.642Z,28.20
2019-02-18T02:13:35.939Z,28.20
2019-02-18T02:16:05.901Z,26.20
2019-02-18T02:18:32.996Z,25.93
2019-02-18T02:21:00.156Z,28.83
2019-02-18T02:23:27.314Z,29.57
2019-02-18T02:25:54.674Z,30.03
2019-02-18T02:28:21.754Z,28.73
2019-02-18T02:30:48.933Z,26.37
2019-02-18T02:33:16.015Z,27.00
2019-02-18T02:35:43.114Z,27.23
2019-02-18T02:38:10.580Z,27.20
2019-02-18T02:40:37.775Z,27.47
2019-02-18T02:43:06.894Z,27.53
2019-02-18T02:45:34.034Z,28.00
2019-02-18T02:48:01.201Z,27.67
2019-02-18T02:50:28.354Z,27.77
2019-02-18T02:52:55.475Z,26.53
2019-02-18T02:55:22.576Z,26.90
2019-02-18T02:57:49.673Z,27.77
2019-02-18T03:00:17.113Z,25.40
2019-02-18T03:02:44.215Z,24.53
2019-02-18T03:05:13.233Z,26.20
2019-02-18T03:07:40.375Z,24.40
2019-02-18T03:10:10.354Z,24.87
2019-02-18T03:12:37.475Z,24.50
2019-02-18T03:15:14.757Z,24.20
2019-02-18T03:17:43.274Z,23.23
2019-02-18T03:20:11.354Z,23.23
2019-02-18T03:22:38.453Z,23.43
2019-02-18T03:25:25.899Z,24.47
2019-02-18T03:28:10.713Z,24.87
2019-02-18T03:30:51.355Z,23.97
2019-02-18T03:33:32.696Z,23.03
2019-02-18T03:35:59.769Z,23.33
2019-02-18T03:38:31.470Z,23.30
2019-02-18T03:41:03.155Z,23.60
2019-02-18T03:43:26.094Z,22.33
2019-02-18T03:45:53.293Z,24.23
2019-02-18T03:48:20.435Z,22.80
2019-02-18T03:50:47.516Z,22.53
2019-02-18T03:53:14.853Z,22.80
2019-02-18T03:55:42.042Z,23.03
2019-02-18T03:58:09.055Z,23.37
2019-02-18T04:00:36.145Z,22.50
2019-02-18T04:03:03.230Z,26.43
2019-02-18T04:05:30.494Z,23.93
2019-02-18T04:07:57.594Z,24.73
2019-02-18T04:10:24.715Z,24.73
2019-02-18T04:12:51.792Z,23.60
2019-02-18T04:15:18.956Z,23.07
2019-02-18T04:17:46.054Z,24.53
2019-02-18T04:20:13.413Z,25.20
2019-02-18T04:22:40.494Z,26.50
2019-02-18T04:25:07.915Z,26.57
2019-02-18T04:27:35.033Z,27.63
2019-02-18T04:30:03.517Z,23.63
2019-02-18T04:32:30.914Z,23.47
2019-02-18T04:34:58.034Z,22.93
2019-02-18T04:37:25.413Z,23.63
2019-02-18T04:39:52.514Z,24.73
2019-02-18T04:42:19.673Z,25.57
2019-02-18T04:44:46.795Z,24.80
2019-02-18T04:47:13.974Z,24.67
2019-02-18T04:49:41.093Z,24.13
2019-02-18T04:52:08.236Z,25.43
2019-02-18T04:54:35.355Z,25.10
2019-02-18T04:57:02.557Z,25.10
2019-02-18T04:59:29.878Z,23.50
2019-02-18T05:01:57.614Z,23.90
2019-02-18T05:04:24.727Z,23.50
2019-02-18T05:06:52.114Z,24.10
2019-02-18T05:09:19.221Z,23.40
2019-02-18T05:11:46.421Z,22.63
2019-02-18T05:14:13.583Z,23.80
2019-02-18T05:16:40.753Z,22.00
2019-02-18T05:19:07.933Z,21.97
2019-02-18T05:21:35.093Z,21.17
2019-02-18T05:24:02.153Z,21.53
2019-02-18T05:26:29.275Z,23.43
2019-02-18T05:28:56.375Z,21.10
2019-02-18T05:31:23.634Z,21.43
2019-02-18T05:33:50.714Z,21.63
2019-02-18T05:36:17.775Z,21.87
2019-02-18T05:38:44.954Z,21.03
2019-02-18T05:41:12.059Z,21.17
2019-02-18T05:43:39.215Z,20.80
2019-02-18T05:46:08.533Z,20.33
2019-02-18T05:48:35.357Z,20.17
2019-02-18T05:51:02.441Z,21.77
2019-02-18T05:53:29.591Z,22.03
2019-02-18T05:55:56.713Z,21.77
2019-02-18T05:58:23.852Z,23.10
2019-02-18T06:00:50.982Z,21.77
2019-02-18T06:03:18.134Z,22.57
2019-02-18T06:05:45.376Z,22.37
2019-02-18T06:08:12.523Z,22.07
2019-02-18T06:10:39.634Z,21.40
2019-02-18T06:13:06.835Z,20.03
2019-02-18T06:15:33.997Z,19.23
2019-02-18T06:18:01.134Z,19.43
2019-02-18T06:20:28.255Z,20.07
2019-02-18T06:22:55.497Z,19.43
2019-02-18T06:25:22.618Z,19.63
2019-02-18T06:27:51.603Z,20.37
2019-02-18T06:30:18.850Z,20.13
2019-02-18T06:32:46.755Z,20.43
2019-02-18T06:35:13.933Z,21.50
2019-02-18T06:37:41.015Z,19.90
2019-02-18T06:40:08.537Z,22.83
2019-02-18T06:42:35.710Z,21.50
2019-02-18T06:45:11.943Z,20.97
2019-02-18T06:47:39.310Z,25.20
2019-02-18T06:50:07.750Z,24.53
2019-02-18T06:52:34.870Z,23.77
2019-02-18T06:55:02.033Z,24.30
2019-02-18T06:57:30.910Z,22.17
2019-02-18T06:59:58.091Z,21.53
2019-02-18T07:02:30.055Z,21.30
2019-02-18T07:04:59.010Z,20.67
2019-02-18T07:07:44.472Z,20.30
2019-02-18T07:10:19.414Z,20.97
2019-02-18T07:12:47.171Z,20.57
2019-02-18T07:15:14.332Z,20.07
2019-02-18T07:17:41.350Z,19.87
2019-02-18T07:20:08.411Z,20.00
2019-02-18T07:22:35.533Z,20.00
2019-02-18T07:25:04.371Z,19.60
2019-02-18T07:27:31.429Z,19.90
2019-02-18T07:29:58.610Z,20.37
2019-02-18T07:32:25.790Z,18.90
2019-02-18T07:34:52.910Z,19.63
2019-02-18T07:37:20.013Z,20.70
2019-02-18T07:39:47.133Z,19.93
2019-02-18T07:42:14.331Z,20.90
2019-02-18T07:44:41.479Z,20.67
2019-02-18T07:47:08.590Z,20.30
2019-02-18T07:49:35.711Z,20.43
2019-02-18T07:52:03.177Z,20.27
2019-02-18T07:54:30.289Z,20.37
2019-02-18T07:56:57.630Z,21.60
2019-02-18T07:59:24.920Z,19.60
2019-02-18T08:01:51.989Z,20.80
2019-02-18T08:04:19.090Z,20.47
2019-02-18T08:06:46.190Z,19.93
2019-02-18T08:09:13.349Z,19.60
2019-02-18T08:11:40.610Z,19.80
2019-02-18T08:14:07.730Z,19.23
2019-02-18T08:16:34.789Z,20.03
2019-02-18T08:19:01.929Z,18.73
2019-02-18T08:21:29.031Z,19.53
2019-02-18T08:24:00.088Z,20.97
2019-02-18T08:26:25.190Z,21.03
2019-02-18T08:28:52.351Z,21.57
2019-02-18T08:31:19.549Z,21.77
2019-02-18T08:33:46.729Z,22.73
2019-02-18T08:36:13.889Z,21.50
2019-02-18T08:38:41.050Z,22.67
2019-02-18T08:41:08.130Z,22.07
2019-02-18T08:43:35.230Z,21.93
2019-02-18T08:46:02.350Z,21.03
2019-02-18T08:48:29.551Z,20.87
2019-02-18T08:50:56.710Z,21.90
2019-02-18T08:53:23.849Z,22.63
2019-02-18T08:55:50.990Z,20.97
2019-02-18T08:58:18.230Z,20.70
2019-02-18T09:00:45.375Z,20.70
2019-02-18T09:03:12.430Z,19.87
2019-02-18T09:05:39.529Z,19.83
2019-02-18T09:08:06.590Z,19.27
2019-02-18T09:10:34.148Z,20.03
2019-02-18T09:13:01.475Z,20.10
2019-02-18T09:15:28.569Z,20.60
2019-02-18T09:17:55.738Z,21.23
2019-02-18T09:20:22.829Z,21.10
2019-02-18T09:23:06.847Z,21.00
2019-02-18T09:25:35.801Z,21.57
2019-02-18T09:28:03.093Z,25.03
2019-02-18T09:30:31.969Z,24.67
2019-02-18T09:32:59.162Z,25.83
2019-02-18T09:35:26.250Z,25.80
2019-02-18T09:37:53.418Z,29.23
2019-02-18T09:40:20.534Z,26.47
2019-02-18T09:42:47.610Z,27.60
2019-02-18T09:45:15.036Z,26.33
2019-02-18T09:47:42.390Z,25.63
2019-02-18T09:50:10.270Z,24.23
2019-02-18T09:52:37.389Z,23.23
2019-02-18T09:55:07.850Z,20.10
2019-02-18T09:57:34.992Z,24.30
2019-02-18T10:00:04.010Z,23.07
2019-02-18T10:02:31.126Z,23.63
2019-02-18T10:04:58.230Z,21.83
2019-02-18T10:07:25.450Z,19.00
2019-02-18T10:09:52.610Z,18.13
2019-02-18T10:12:19.712Z,15.70
2019-02-18T10:14:46.775Z,12.03
2019-02-18T10:17:13.850Z,16.20
2019-02-18T10:19:42.989Z,16.23
2019-02-18T10:22:09.970Z,17.40
2019-02-18T10:24:37.070Z,17.70
2019-02-18T10:27:04.910Z,16.97
2019-02-18T10:29:32.370Z,17.30
2019-02-18T10:31:59.470Z,15.97
2019-02-18T10:34:26.630Z,16.20
2019-02-18T10:36:53.730Z,16.93
2019-02-18T10:39:20.851Z,17.83
2019-02-18T10:41:47.931Z,17.10
2019-02-18T10:44:15.089Z,17.50
2019-02-18T10:46:42.190Z,17.73
2019-02-18T10:49:19.334Z,17.23
2019-02-18T10:51:38.310Z,17.00
2019-02-18T10:54:06.008Z,16.83
2019-02-18T10:56:33.110Z,17.10
2019-02-18T10:59:00.272Z,16.83
2019-02-18T11:01:27.396Z,16.50
2019-02-18T11:03:54.523Z,17.03
2019-02-18T11:06:22.689Z,16.87
2019-02-18T11:08:49.790Z,16.93
2019-02-18T11:11:17.380Z,15.13
2019-02-18T11:13:44.770Z,16.43
2019-02-18T11:16:11.893Z,17.73
2019-02-18T11:18:39.009Z,15.07
2019-02-18T11:21:07.028Z,17.13
2019-02-18T11:23:34.149Z,17.20
2019-02-18T11:26:01.229Z,18.17
2019-02-18T11:28:28.450Z,17.50
2019-02-18T11:30:55.653Z,17.70
2019-02-18T11:33:22.793Z,18.20
2019-02-18T11:35:50.389Z,18.83
2019-02-18T11:38:17.870Z,19.10
2019-02-18T11:40:45.249Z,18.27
2019-02-18T11:43:12.370Z,18.50
2019-02-18T11:45:39.510Z,20.10
2019-02-18T11:48:06.689Z,19.37
2019-02-18T11:50:33.792Z,18.43
2019-02-18T11:53:01.188Z,19.17
2019-02-18T11:55:28.485Z,20.77
2019-02-18T11:57:56.189Z,19.83
2019-02-18T12:00:23.250Z,20.60
2019-02-18T12:02:50.349Z,20.13
2019-02-18T12:05:17.549Z,20.60
2019-02-18T12:07:44.633Z,20.33
2019-02-18T12:10:12.830Z,21.30
2019-02-18T12:12:40.369Z,21.63
2019-02-18T12:15:10.671Z,20.47
2019-02-18T12:17:38.389Z,18.63
2019-02-18T12:20:09.849Z,19.70
2019-02-18T12:22:36.930Z,19.83
2019-02-18T12:25:04.855Z,20.63
2019-02-18T12:27:32.243Z,20.67
2019-02-18T12:29:59.749Z,20.13
2019-02-18T12:32:26.790Z,18.93
2019-02-18T12:34:53.928Z,20.13
2019-02-18T12:37:21.030Z,19.27
2019-02-18T12:39:48.152Z,19.17
2019-02-18T12:42:15.229Z,17.67
2019-02-18T12:44:42.374Z,18.00
2019-02-18T12:47:09.831Z,18.70
2019-02-18T12:49:36.969Z,19.37
2019-02-18T12:52:04.229Z,18.53
2019-02-18T12:54:31.349Z,17.53
2019-02-18T12:56:58.470Z,18.23
2019-02-18T12:59:25.711Z,17.57
2019-02-18T13:01:52.909Z,17.80
2019-02-18T13:04:19.990Z,17.90
2019-02-18T13:06:47.251Z,18.47
2019-02-18T13:09:14.751Z,18.30
2019-02-18T13:11:41.990Z,17.87
2019-02-18T13:14:09.219Z,17.90
2019-02-18T13:16:36.371Z,17.90
2019-02-18T13:19:03.492Z,17.73
2019-02-18T13:21:30.615Z,18.17
2019-02-18T13:23:58.031Z,17.70
2019-02-18T13:26:25.135Z,17.60
2019-02-18T13:28:52.991Z,18.43
2019-02-18T13:31:20.151Z,17.57
2019-02-18T13:33:47.257Z,17.93
2019-02-18T13:36:14.550Z,18.13
2019-02-18T13:38:41.754Z,17.97
2019-02-18T13:41:09.011Z,16.93
2019-02-18T13:43:36.250Z,17.47
2019-02-18T13:46:03.530Z,17.90
2019-02-18T13:48:31.192Z,18.30
2019-02-18T13:50:58.351Z,17.33
2019-02-18T13:53:25.455Z,16.73
2019-02-18T13:55:52.612Z,17.27
2019-02-18T13:58:19.671Z,17.07
2019-02-18T14:00:46.989Z,17.20
2019-02-18T14:03:14.152Z,16.87
2019-02-18T14:05:41.673Z,17.03
2019-02-18T14:08:08.832Z,18.00
2019-02-18T14:10:35.975Z,16.80
2019-02-18T14:13:03.276Z,15.93
2019-02-18T14:15:30.632Z,17.73
2019-02-18T14:17:57.891Z,16.40
2019-02-18T14:20:25.032Z,16.73
2019-02-18T14:22:52.732Z,16.47
2019-02-18T14:25:19.814Z,16.43
2019-02-18T14:27:46.992Z,16.20
2019-02-18T14:30:16.799Z,15.10
2019-02-18T14:32:43.972Z,13.60
2019-02-18T14:35:11.931Z,13.97
2019-02-18T14:37:39.052Z,14.03
2019-02-18T14:40:08.658Z,12.77
2019-02-18T14:42:35.954Z,12.40
2019-02-18T14:45:04.594Z,10.63
2019-02-18T14:47:31.794Z,10.63
2019-02-18T14:49:58.894Z,11.17
2019-02-18T14:52:26.774Z,11.13
2019-02-18T14:54:54.213Z,11.47
2019-02-18T14:57:21.774Z,10.13
2019-02-18T14:59:48.914Z,9.73
2019-02-18T15:02:16.013Z,10.00
2019-02-18T15:04:43.215Z,9.50
2019-02-18T15:07:10.314Z,9.63
2019-02-18T15:09:37.482Z,8.70
2019-02-18T15:12:05.194Z,7.90
2019-02-18T15:14:32.793Z,8.80
2019-02-18T15:17:00.014Z,10.13
2019-02-18T15:19:27.195Z,11.07
2019-02-18T15:21:54.275Z,9.20
2019-02-18T15:24:21.656Z,10.10
2019-02-18T15:26:48.776Z,10.03
2019-02-18T15:29:15.896Z,9.67
2019-02-18T15:31:42.976Z,9.43
2019-02-18T15:34:10.216Z,9.57
2019-02-18T15:36:37.415Z,9.53
2019-02-18T15:39:05.372Z,8.87
2019-02-18T15:41:32.528Z,8.23
2019-02-18T15:43:59.654Z,9.50
2019-02-18T15:46:26.777Z,8.90
2019-02-18T15:48:53.929Z,9.00
2019-02-18T15:51:21.632Z,9.60
2019-02-18T15:53:48.771Z,9.97
2019-02-18T15:56:16.213Z,9.83
2019-02-18T15:58:43.338Z,9.97
2019-02-18T16:01:10.535Z,8.97
2019-02-18T16:03:37.843Z,9.43
2019-02-18T16:06:04.904Z,10.07
2019-02-18T16:08:32.325Z,10.20
2019-02-18T16:10:59.387Z,9.60
2019-02-18T16:13:26.464Z,9.47
2019-02-18T16:15:53.648Z,10.20
2019-02-18T16:18:20.944Z,9.93
2019-02-18T16:20:48.123Z,10.73
2019-02-18T16:23:15.224Z,10.53
2019-02-18T16:25:42.624Z,9.83
2019-02-18T16:28:10.169Z,10.73
2019-02-18T16:30:37.384Z,9.93
2019-02-18T16:33:04.463Z,11.47
2019-02-18T16:35:31.864Z,11.27
2019-02-18T16:37:58.924Z,11.70
2019-02-18T16:40:27.331Z,12.17
2019-02-18T16:42:59.323Z,13.17
2019-02-18T16:45:23.544Z,13.27
2019-02-18T16:47:50.785Z,11.50
2019-02-18T16:50:18.041Z,12.63
2019-02-18T16:53:04.893Z,12.27
2019-02-18T16:55:32.600Z,12.93
2019-02-18T16:57:59.641Z,13.33
2019-02-18T17:00:31.372Z,12.47
2019-02-18T17:02:58.851Z,12.83
2019-02-18T17:05:26.015Z,13.33
2019-02-18T17:07:53.112Z,13.30
2019-02-18T17:10:20.352Z,13.97
2019-02-18T17:12:47.893Z,13.30
2019-02-18T17:15:15.236Z,13.43
2019-02-18T17:17:42.326Z,15.13
2019-02-18T17:20:09.613Z,14.40
2019-02-18T17:22:36.712Z,14.47
2019-02-18T17:25:08.032Z,13.80
2019-02-18T17:27:35.231Z,13.20
2019-02-18T17:30:03.273Z,12.63
2019-02-18T17:32:30.351Z,13.83
2019-02-18T17:34:57.592Z,13.83
2019-02-18T17:37:24.692Z,14.43
2019-02-18T17:39:51.765Z,14.03
2019-02-18T17:42:18.916Z,13.73
2019-02-18T17:44:46.092Z,14.80
2019-02-18T17:47:13.213Z,15.37
2019-02-18T17:49:40.355Z,16.23
2019-02-18T17:52:07.472Z,16.20
2019-02-18T17:54:34.551Z,14.93
2019-02-18T17:57:01.631Z,16.03
2019-02-18T17:59:28.768Z,14.43
2019-02-18T18:01:56.091Z,15.30
2019-02-18T18:04:23.306Z,14.83
2019-02-18T18:06:50.849Z,14.53
2019-02-18T18:09:18.253Z,15.07
2019-02-18T18:11:45.386Z,15.57
2019-02-18T18:14:12.468Z,14.80
2019-02-18T18:16:39.607Z,14.43
2019-02-18T18:19:09.390Z,13.97
2019-02-18T18:21:35.787Z,15.80
2019-02-18T18:24:03.630Z,17.60
2019-02-18T18:26:30.848Z,16.93
2019-02-18T18:28:57.928Z,16.10
2019-02-18T18:31:25.088Z,15.17
2019-02-18T18:33:52.188Z,16.97
2019-02-18T18:36:19.368Z,17.40
2019-02-18T18:38:46.448Z,22.87
2019-02-18T18:41:13.529Z,26.20
2019-02-18T18:43:40.669Z,26.87
2019-02-18T18:46:07.847Z,29.10
2019-02-18T18:48:34.967Z,28.67
2019-02-18T18:51:02.108Z,26.67
2019-02-18T18:53:29.257Z,23.90
2019-02-18T18:55:56.330Z,23.53
2019-02-18T18:58:23.448Z,23.53
2019-02-18T19:00:50.568Z,22.87
2019-02-18T19:03:17.647Z,19.60
2019-02-18T19:05:44.748Z,20.50
2019-02-18T19:08:11.847Z,18.63
2019-02-18T19:10:38.954Z,18.20
2019-02-18T19:13:06.029Z,19.90
2019-02-18T19:15:33.169Z,19.43
2019-02-18T19:18:00.260Z,21.20
2019-02-18T19:20:34.947Z,17.63
2019-02-18T19:23:02.068Z,16.97
2019-02-18T19:25:29.210Z,18.10
2019-02-18T19:27:56.590Z,17.80
2019-02-18T19:30:30.010Z,19.43
2019-02-18T19:32:57.129Z,18.13
2019-02-18T19:35:24.251Z,20.03
2019-02-18T19:37:51.369Z,19.67
2019-02-18T19:40:18.451Z,22.37
2019-02-18T19:42:45.570Z,22.30
2019-02-18T19:45:21.369Z,21.53
2019-02-18T19:47:48.514Z,22.57
2019-02-18T19:50:15.630Z,24.30
2019-02-18T19:52:42.709Z,24.17
2019-02-18T19:55:11.510Z,26.77
2019-02-18T19:57:38.649Z,29.40
2019-02-18T20:00:18.972Z,30.47
2019-02-18T20:02:46.068Z,31.97
2019-02-18T20:05:13.195Z,32.93
2019-02-18T20:07:40.336Z,34.37
2019-02-18T20:10:10.559Z,34.17
2019-02-18T20:12:38.055Z,35.80
2019-02-18T20:15:12.437Z,35.67
2019-02-18T20:17:39.558Z,38.60
2019-02-18T20:20:13.617Z,43.03
2019-02-18T20:22:40.761Z,42.80
2019-02-18T20:25:08.936Z,44.27
2019-02-18T20:27:36.017Z,44.20
2019-02-18T20:30:13.536Z,47.73
2019-02-18T20:32:40.699Z,48.60
2019-02-18T20:35:09.876Z,46.83
2019-02-18T20:37:36.996Z,49.23
2019-02-18T20:40:06.697Z,46.50
2019-02-18T20:42:33.816Z,41.93
2019-02-18T20:45:00.916Z,45.67
2019-02-18T20:47:28.083Z,47.40
2019-02-18T20:49:55.276Z,38.60
2019-02-18T20:52:22.597Z,39.93
2019-02-18T20:54:49.735Z,39.97
2019-02-18T20:57:16.901Z,37.63
2019-02-18T20:59:44.016Z,35.23
2019-02-18T21:02:11.477Z,37.40
2019-02-18T21:04:38.675Z,40.90
2019-02-18T21:07:06.616Z,42.33
2019-02-18T21:09:33.775Z,44.93
2019-02-18T21:12:00.977Z,48.37
2019-02-18T21:14:28.056Z,48.47
2019-02-18T21:16:55.175Z,48.60
2019-02-18T21:19:22.723Z,51.30
2019-02-18T21:21:50.095Z,51.63
2019-02-18T21:24:17.236Z,52.37
2019-02-18T21:26:44.297Z,53.03
2019-02-18T21:29:11.415Z,54.47
2019-02-18T21:31:38.555Z,51.57
2019-02-18T21:34:05.675Z,50.07
2019-02-18T21:36:33.136Z,52.27
2019-02-18T21:39:00.335Z,52.60
2019-02-18T21:41:27.435Z,52.53
2019-02-18T21:43:54.496Z,50.27
2019-02-18T21:46:21.676Z,50.97
2019-02-18T21:48:48.838Z,50.57
2019-02-18T21:51:15.915Z,52.50
2019-02-18T21:53:43.656Z,53.00
2019-02-18T21:56:10.776Z,49.90
2019-02-18T21:58:37.875Z,51.90
2019-02-18T22:01:05.016Z,54.00
2019-02-18T22:03:32.214Z,53.00
2019-02-18T22:05:59.359Z,54.80
2019-02-18T22:08:26.456Z,53.87
2019-02-18T22:10:53.575Z,55.07
2019-02-18T22:13:20.895Z,56.13
2019-02-18T22:15:48.035Z,54.70
2019-02-18T22:18:15.336Z,53.13
2019-02-18T22:20:42.617Z,51.47
2019-02-18T22:23:09.757Z,52.20
2019-02-18T22:25:36.875Z,55.33
2019-02-18T22:28:04.014Z,56.87
2019-02-18T22:30:31.169Z,55.83
2019-02-18T22:32:58.930Z,57.90
2019-02-18T22:35:26.076Z,59.77
2019-02-18T22:37:53.210Z,57.60
2019-02-18T22:40:20.468Z,57.27
2019-02-18T22:42:47.556Z,56.47
2019-02-18T22:45:14.904Z,57.67
2019-02-18T22:47:42.024Z,58.33
2019-02-18T22:50:10.802Z,60.53
2019-02-18T22:52:38.122Z,62.63
2019-02-18T22:55:06.606Z,66.30
2019-02-18T22:57:33.862Z,57.97
2019-02-18T23:00:01.043Z,62.87
2019-02-18T23:02:28.204Z,56.93
2019-02-18T23:04:55.283Z,59.93
2019-02-18T23:07:22.402Z,63.07
2019-02-18T23:09:49.803Z,57.57
2019-02-18T23:12:16.983Z,55.73
2019-02-18T23:14:50.242Z,55.83
2019-02-18T23:17:13.082Z,55.10
2019-02-18T23:19:40.262Z,54.10
2019-02-18T23:22:07.407Z,54.37
2019-02-18T23:24:34.782Z,53.77
2019-02-18T23:27:03.838Z,57.03
2019-02-18T23:29:30.982Z,55.83
2019-02-18T23:31:58.043Z,57.23
2019-02-18T23:34:25.123Z,56.50
2019-02-18T23:36:52.186Z,56.57
2019-02-18T23:39:19.322Z,56.93
2019-02-18T23:41:46.382Z,61.50
2019-02-18T23:44:13.503Z,64.23
2019-02-18T23:46:40.626Z,62.80
2019-02-18T23:49:07.823Z,66.00
2019-02-18T23:51:35.085Z,63.63
2019-02-18T23:54:22.002Z,64.70
2019-02-18T23:56:49.142Z,62.63
2019-02-18T23:59:16.323Z,56.87
